createdAt,value
2022-09-10T00:00:27.230Z,50.16
2022-09-10T00:03:00.779Z,50.22
2022-09-10T00:05:40.375Z,50.22
2022-09-10T00:08:14.576Z,50.23
2022-09-10T00:10:49.997Z,50.20
2022-09-10T00:13:25.167Z,50.27
2022-09-10T00:15:59.845Z,50.36
2022-09-10T00:18:34.890Z,50.54
2022-09-10T00:21:10.946Z,50.63
2022-09-10T00:23:45.781Z,50.78
2022-09-10T00:26:22.709Z,50.95
2022-09-10T00:28:59.804Z,51.28
2022-09-10T00:31:35.543Z,51.36
2022-09-10T00:34:10.150Z,51.58
2022-09-10T00:36:47.098Z,51.60
2022-09-10T00:39:21.388Z,51.54
2022-09-10T00:41:57.877Z,51.29
2022-09-10T00:45:13.799Z,51.34
2022-09-10T00:47:48.133Z,51.38
2022-09-10T00:50:25.811Z,51.22
2022-09-10T00:53:02.426Z,51.42
2022-09-10T00:55:38.900Z,51.30
2022-09-10T00:58:15.921Z,51.42
2022-09-10T01:00:52.934Z,51.46
2022-09-10T01:03:30.560Z,51.48
2022-09-10T01:06:07.108Z,51.50
2022-09-10T01:08:42.372Z,51.49
2022-09-10T01:11:34.551Z,51.69
2022-09-10T01:14:33.171Z,51.85
2022-09-10T01:17:11.631Z,51.88
2022-09-10T01:20:21.024Z,51.96
2022-09-10T01:23:09.244Z,52.32
2022-09-10T01:25:48.865Z,52.38
2022-09-10T01:28:27.665Z,52.50
2022-09-10T01:31:06.313Z,52.63
2022-09-10T01:33:44.815Z,52.61
2022-09-10T01:36:24.070Z,52.77
2022-09-10T01:38:59.493Z,52.80
2022-09-10T01:41:34.604Z,53.02
2022-09-10T01:44:33.076Z,53.25
2022-09-10T01:47:12.318Z,53.31
2022-09-10T01:49:54.463Z,53.25
2022-09-10T01:52:34.280Z,53.28
2022-09-10T01:55:15.048Z,53.35
2022-09-10T01:57:56.315Z,53.46
2022-09-10T02:00:33.543Z,53.75
2022-09-10T02:03:11.524Z,53.89
2022-09-10T02:05:48.958Z,53.94
2022-09-10T02:08:26.428Z,53.95
2022-09-10T02:11:03.582Z,53.76
2022-09-10T02:13:39.275Z,53.70
2022-09-10T02:16:21.734Z,53.58
2022-09-10T02:18:56.782Z,53.47
2022-09-10T02:21:32.256Z,53.37
2022-09-10T02:24:10.196Z,53.29
2022-09-10T02:26:46.817Z,53.16
2022-09-10T02:29:20.668Z,53.08
2022-09-10T02:31:54.277Z,53.01
2022-09-10T02:34:27.985Z,53.01
2022-09-10T02:37:03.334Z,53.04
2022-09-10T02:39:36.994Z,53.02
2022-09-10T02:42:10.723Z,53.04
2022-09-10T02:44:44.642Z,53.11
2022-09-10T02:47:18.399Z,53.27
2022-09-10T02:49:51.881Z,53.39
2022-09-10T02:52:25.986Z,53.53
2022-09-10T02:55:00.240Z,53.62
2022-09-10T02:57:34.464Z,53.67
2022-09-10T03:00:09.633Z,53.69
2022-09-10T03:02:43.429Z,53.65
2022-09-10T03:05:18.379Z,53.60
2022-09-10T03:07:52.301Z,53.57
2022-09-10T03:10:26.694Z,53.59
2022-09-10T03:13:00.891Z,53.62
2022-09-10T03:15:34.492Z,53.74
2022-09-10T03:18:09.390Z,53.84
2022-09-10T03:20:43.048Z,53.92
2022-09-10T03:23:16.390Z,53.98
2022-09-10T03:25:50.456Z,54.08
2022-09-10T03:28:26.540Z,54.42
2022-09-10T03:31:00.137Z,54.52
2022-09-10T03:33:34.338Z,54.65
2022-09-10T03:36:09.074Z,54.61
2022-09-10T03:38:42.702Z,54.67
2022-09-10T03:41:16.414Z,54.97
2022-09-10T03:43:50.477Z,55.01
2022-09-10T03:46:26.884Z,55.24
2022-09-10T03:49:02.594Z,55.48
2022-09-10T03:51:36.364Z,55.40
2022-09-10T03:54:10.646Z,55.51
2022-09-10T03:56:45.240Z,55.58
2022-09-10T03:59:19.211Z,55.57
2022-09-10T04:01:52.842Z,55.46
2022-09-10T04:04:26.491Z,55.33
2022-09-10T04:07:01.198Z,54.94
2022-09-10T04:09:35.071Z,54.82
2022-09-10T04:12:09.911Z,54.84
2022-09-10T04:14:45.128Z,54.86
2022-09-10T04:17:20.823Z,54.80
2022-09-10T04:19:55.064Z,54.77
2022-09-10T04:22:29.056Z,54.70
2022-09-10T04:25:04.623Z,54.65
2022-09-10T04:27:38.281Z,54.63
2022-09-10T04:30:13.862Z,54.64
2022-09-10T04:32:47.668Z,54.60
2022-09-10T04:35:23.281Z,54.58
2022-09-10T04:37:56.902Z,54.53
2022-09-10T04:40:30.864Z,54.56
2022-09-10T04:43:05.059Z,54.63
2022-09-10T04:45:40.990Z,54.57
2022-09-10T04:48:14.554Z,54.46
2022-09-10T04:51:14.661Z,54.39
2022-09-10T04:53:26.063Z,54.42
2022-09-10T04:56:01.014Z,53.04
2022-09-10T04:58:39.045Z,53.76
2022-09-10T05:01:12.714Z,53.98
2022-09-10T05:03:47.503Z,54.17
2022-09-10T05:06:21.310Z,54.25
2022-09-10T05:08:56.063Z,54.32
2022-09-10T05:11:31.554Z,54.32
2022-09-10T05:14:05.893Z,54.37
2022-09-10T05:16:39.854Z,54.36
2022-09-10T05:19:15.767Z,54.41
2022-09-10T05:21:51.223Z,54.53
2022-09-10T05:24:24.957Z,54.48
2022-09-10T05:26:59.776Z,54.45
2022-09-10T05:29:33.372Z,54.38
2022-09-10T05:32:09.229Z,54.45
2022-09-10T05:34:43.142Z,54.38
2022-09-10T05:37:16.574Z,54.17
2022-09-10T05:39:50.139Z,54.09
2022-09-10T05:42:24.036Z,53.94
2022-09-10T05:44:57.848Z,53.65
2022-09-10T05:47:34.932Z,53.51
2022-09-10T05:50:11.405Z,53.23
2022-09-10T05:52:44.890Z,52.98
2022-09-10T05:55:18.761Z,52.97
2022-09-10T05:57:53.123Z,52.79
2022-09-10T06:00:26.944Z,52.62
2022-09-10T06:03:02.632Z,52.42
2022-09-10T06:05:41.023Z,52.05
2022-09-10T06:08:14.523Z,52.01
2022-09-10T06:10:58.912Z,51.85
2022-09-10T06:13:35.244Z,51.75
2022-09-10T06:16:08.970Z,51.80
2022-09-10T06:18:44.886Z,51.96
2022-09-10T06:21:25.017Z,51.85
2022-09-10T06:23:57.498Z,50.30
2022-09-10T06:26:33.373Z,48.55
2022-09-10T06:29:08.744Z,45.83
2022-09-10T06:31:44.200Z,43.02
2022-09-10T06:34:19.197Z,40.28
2022-09-10T06:36:53.130Z,38.07
2022-09-10T06:39:28.858Z,36.38
2022-09-10T06:42:04.133Z,35.13
2022-09-10T06:44:51.412Z,34.41
2022-09-10T06:50:11.944Z,31.49
2022-09-10T06:52:48.905Z,30.36
2022-09-10T06:55:24.030Z,29.46
2022-09-10T06:57:57.689Z,29.14
2022-09-10T07:00:32.450Z,28.48
2022-09-10T07:03:07.188Z,26.20
2022-09-10T07:05:40.750Z,24.98
2022-09-10T07:08:16.216Z,25.06
2022-09-10T07:10:50.578Z,24.40
2022-09-10T07:13:25.935Z,24.37
2022-09-10T07:16:00.625Z,23.27
2022-09-10T07:18:34.584Z,22.88
2022-09-10T07:21:14.240Z,22.57
2022-09-10T07:23:53.790Z,22.12
2022-09-10T07:26:27.526Z,22.44
2022-09-10T07:29:02.553Z,22.70
2022-09-10T07:31:38.394Z,23.37
2022-09-10T07:34:14.250Z,22.81
2022-09-10T07:36:48.139Z,23.05
2022-09-10T07:39:25.544Z,22.25
2022-09-10T07:41:57.381Z,21.49
2022-09-10T07:44:32.588Z,22.41
2022-09-10T07:47:07.886Z,22.29
2022-09-10T07:49:41.362Z,21.17
2022-09-10T07:52:15.392Z,20.12
2022-09-10T07:54:50.379Z,19.33
2022-09-10T07:57:25.488Z,18.54
2022-09-10T08:00:00.794Z,18.87
2022-09-10T08:02:36.102Z,19.65
2022-09-10T08:05:12.550Z,20.21
2022-09-10T08:07:46.764Z,20.07
2022-09-10T08:10:20.963Z,20.74
2022-09-10T08:12:54.929Z,20.46
2022-09-10T08:15:28.980Z,19.35
2022-09-10T08:18:03.841Z,17.94
2022-09-10T08:20:39.364Z,17.63
2022-09-10T08:23:13.944Z,18.36
2022-09-10T08:25:53.081Z,18.98
2022-09-10T08:28:27.416Z,18.86
2022-09-10T08:31:04.397Z,19.72
2022-09-10T08:33:39.610Z,20.60
2022-09-10T08:36:15.094Z,21.90
2022-09-10T08:38:49.441Z,23.62
2022-09-10T08:41:29.893Z,24.63
2022-09-10T08:44:07.517Z,25.58
2022-09-10T08:46:44.570Z,24.25
2022-09-10T08:49:21.166Z,23.32
2022-09-10T08:51:57.713Z,21.08
2022-09-10T08:54:34.229Z,18.95
2022-09-10T08:57:11.495Z,18.54
2022-09-10T08:59:50.284Z,18.56
2022-09-10T09:02:47.206Z,20.10
2022-09-10T09:05:02.802Z,20.93
2022-09-10T09:07:39.482Z,20.00
2022-09-10T09:10:31.567Z,18.46
2022-09-10T09:13:18.128Z,17.82
2022-09-10T09:15:55.094Z,17.79
2022-09-10T09:18:31.550Z,16.91
2022-09-10T09:21:08.180Z,16.85
2022-09-10T09:23:57.054Z,16.91
2022-09-10T09:26:19.986Z,16.61
2022-09-10T09:28:58.114Z,16.49
2022-09-10T09:31:32.255Z,16.25
2022-09-10T09:34:10.448Z,17.81
2022-09-10T09:36:47.127Z,17.38
2022-09-10T09:39:25.776Z,20.13
2022-09-10T09:42:04.486Z,17.78
2022-09-10T09:44:41.299Z,17.17
2022-09-10T09:47:15.198Z,16.92
2022-09-10T09:49:49.067Z,16.83
2022-09-10T09:52:25.157Z,16.13
2022-09-10T09:55:14.213Z,15.76
2022-09-10T09:57:36.698Z,15.93
2022-09-10T10:00:36.679Z,15.67
2022-09-10T10:03:16.535Z,16.10
2022-09-10T10:05:50.768Z,15.22
2022-09-10T10:08:31.698Z,15.15
2022-09-10T10:11:06.649Z,13.42
2022-09-10T10:13:41.978Z,13.19
2022-09-10T10:16:21.274Z,14.35
2022-09-10T10:18:55.016Z,13.87
2022-09-10T10:21:32.873Z,13.38
2022-09-10T10:24:06.850Z,13.78
2022-09-10T10:26:43.088Z,12.37
2022-09-10T10:29:22.221Z,11.60
2022-09-10T10:31:57.627Z,11.80
2022-09-10T10:34:54.119Z,12.33
2022-09-10T10:37:33.686Z,13.78
2022-09-10T10:40:16.717Z,13.83
2022-09-10T10:42:54.415Z,14.00
2022-09-10T10:45:38.849Z,14.29
2022-09-10T10:48:15.819Z,13.56
2022-09-10T10:50:55.306Z,13.48
2022-09-10T10:53:45.474Z,14.29
2022-09-10T10:56:21.819Z,14.05
2022-09-10T10:59:04.620Z,13.36
2022-09-10T11:01:42.976Z,12.44
2022-09-10T11:04:24.260Z,12.84
2022-09-10T11:07:01.734Z,13.32
2022-09-10T11:09:41.104Z,14.05
2022-09-10T11:12:19.361Z,14.50
2022-09-10T11:14:58.088Z,15.13
2022-09-10T11:17:35.186Z,15.35
2022-09-10T11:20:29.668Z,14.63
2022-09-10T11:22:51.251Z,13.63
2022-09-10T11:25:28.119Z,12.12
2022-09-10T11:28:04.721Z,12.34
2022-09-10T11:30:39.971Z,13.12
2022-09-10T11:33:18.398Z,14.06
2022-09-10T11:35:55.829Z,14.00
2022-09-10T11:38:33.001Z,13.86
2022-09-10T11:41:11.260Z,14.16
2022-09-10T11:43:48.220Z,14.61
2022-09-10T11:46:24.625Z,14.83
2022-09-10T11:49:02.991Z,15.21
2022-09-10T11:51:38.867Z,14.98
2022-09-10T11:54:16.322Z,15.25
2022-09-10T11:56:55.705Z,14.55
2022-09-10T11:59:44.010Z,13.82
2022-09-10T12:02:37.551Z,13.50
2022-09-10T12:05:15.978Z,12.70
2022-09-10T12:07:53.973Z,12.30
2022-09-10T12:10:32.721Z,12.00
2022-09-10T12:13:11.726Z,12.72
2022-09-10T12:15:51.999Z,14.23
2022-09-10T12:18:29.068Z,15.14
2022-09-10T12:21:05.362Z,15.50
2022-09-10T12:23:41.292Z,14.66
2022-09-10T12:26:18.722Z,14.10
2022-09-10T12:29:04.361Z,13.65
2022-09-10T12:32:13.880Z,13.54
2022-09-10T12:34:49.796Z,14.29
2022-09-10T12:37:28.819Z,14.51
2022-09-10T12:40:38.380Z,15.04
2022-09-10T12:43:47.574Z,14.98
2022-09-10T12:46:23.412Z,15.05
2022-09-10T12:49:13.526Z,15.58
2022-09-10T12:51:56.861Z,16.04
2022-09-10T12:54:49.008Z,16.17
2022-09-10T12:57:31.416Z,15.53
2022-09-10T13:00:23.431Z,14.81
2022-09-10T13:02:59.232Z,14.32
2022-09-10T13:05:36.775Z,14.77
2022-09-10T13:08:14.819Z,15.31
2022-09-10T13:10:51.024Z,15.95
2022-09-10T13:13:34.304Z,16.05
2022-09-10T13:16:10.490Z,15.60
2022-09-10T13:18:44.279Z,14.99
2022-09-10T13:21:54.074Z,14.16
2022-09-10T13:24:42.639Z,13.73
2022-09-10T13:27:25.458Z,13.71
2022-09-10T13:30:02.906Z,14.69
2022-09-10T13:32:39.433Z,15.59
2022-09-10T13:35:24.687Z,16.14
2022-09-10T13:38:40.658Z,15.87
2022-09-10T13:41:28.061Z,15.64
2022-09-10T13:44:25.823Z,16.04
2022-09-10T13:47:01.139Z,15.38
2022-09-10T13:49:39.291Z,15.25
2022-09-10T13:52:15.598Z,15.14
2022-09-10T13:54:53.581Z,15.51
2022-09-10T13:57:31.094Z,15.42
2022-09-10T14:00:08.870Z,15.06
2022-09-10T14:02:45.519Z,15.27
2022-09-10T14:05:34.046Z,15.67
2022-09-10T14:08:11.568Z,15.91
2022-09-10T14:10:58.148Z,16.01
2022-09-10T14:13:35.909Z,16.45
2022-09-10T14:16:16.149Z,16.84
2022-09-10T14:18:58.919Z,16.72
2022-09-10T14:21:39.751Z,17.00
2022-09-10T14:24:29.362Z,16.98
2022-09-10T14:27:18.808Z,16.76
2022-09-10T14:29:53.597Z,16.99
2022-09-10T14:32:32.967Z,17.03
2022-09-10T14:35:40.067Z,17.07
2022-09-10T14:38:42.983Z,17.23
2022-09-10T14:41:25.023Z,17.91
2022-09-10T14:44:30.696Z,18.01
2022-09-10T14:47:18.073Z,17.72
2022-09-10T14:49:52.801Z,18.27
2022-09-10T14:52:26.546Z,18.18
2022-09-10T14:55:00.513Z,18.55
2022-09-10T14:57:34.401Z,19.09
2022-09-10T15:00:13.121Z,19.20
2022-09-10T15:02:46.425Z,18.89
2022-09-10T15:05:20.443Z,18.91
2022-09-10T15:07:53.806Z,18.93
2022-09-10T15:10:27.200Z,19.08
2022-09-10T15:13:01.863Z,19.13
2022-09-10T15:15:35.982Z,19.34
2022-09-10T15:18:14.104Z,19.53
2022-09-10T15:20:48.690Z,19.62
2022-09-10T15:23:23.030Z,20.22
2022-09-10T15:25:58.655Z,20.59
2022-09-10T15:28:33.065Z,20.61
2022-09-10T15:31:10.141Z,20.81
2022-09-10T15:33:44.080Z,21.44
2022-09-10T15:36:17.513Z,21.81
2022-09-10T15:38:55.350Z,21.73
2022-09-10T15:41:29.448Z,22.22
2022-09-10T15:44:05.318Z,22.56
2022-09-10T15:46:41.939Z,22.75
2022-09-10T15:49:17.565Z,23.11
2022-09-10T15:51:51.769Z,23.31
2022-09-10T15:54:26.302Z,23.61
2022-09-10T15:57:00.504Z,24.01
2022-09-10T15:59:34.025Z,24.38
2022-09-10T16:02:09.570Z,24.83
2022-09-10T16:04:43.369Z,25.41
2022-09-10T16:07:17.126Z,26.00
2022-09-10T16:09:51.020Z,25.70
2022-09-10T16:12:26.382Z,25.90
2022-09-10T16:15:01.517Z,26.25
2022-09-10T16:17:34.801Z,26.58
2022-09-10T16:20:09.987Z,26.94
2022-09-10T16:22:43.433Z,26.89
2022-09-10T16:25:17.535Z,27.10
2022-09-10T16:27:50.757Z,27.29
2022-09-10T16:30:24.320Z,27.65
2022-09-10T16:32:58.609Z,27.74
2022-09-10T16:35:33.166Z,27.81
2022-09-10T16:38:07.116Z,27.96
2022-09-10T16:40:40.570Z,28.99
2022-09-10T16:43:13.953Z,29.22
2022-09-10T16:45:53.395Z,29.58
2022-09-10T16:48:27.415Z,29.29
2022-09-10T16:51:06.672Z,29.14
2022-09-10T16:53:40.900Z,29.32
2022-09-10T16:56:16.000Z,29.37
2022-09-10T16:58:50.326Z,29.43
2022-09-10T17:01:24.142Z,29.75
2022-09-10T17:03:58.358Z,29.82
2022-09-10T17:06:32.894Z,30.58
2022-09-10T17:09:06.976Z,30.72
2022-09-10T17:11:40.688Z,30.47
2022-09-10T17:14:13.981Z,30.81
2022-09-10T17:16:48.579Z,30.63
2022-09-10T17:19:24.025Z,30.90
2022-09-10T17:21:58.315Z,31.04
2022-09-10T17:24:32.015Z,30.69
2022-09-10T17:27:06.803Z,31.03
2022-09-10T17:29:40.127Z,31.28
2022-09-10T17:32:13.506Z,31.51
2022-09-10T17:34:49.949Z,31.47
2022-09-10T17:37:24.755Z,31.63
2022-09-10T17:39:59.181Z,31.83
2022-09-10T17:42:34.608Z,31.99
2022-09-10T17:45:10.229Z,31.84
2022-09-10T17:47:44.929Z,31.93
2022-09-10T17:50:18.926Z,32.07
2022-09-10T17:52:54.239Z,32.20
2022-09-10T17:55:31.728Z,32.58
2022-09-10T17:58:03.577Z,32.66
2022-09-10T18:00:41.921Z,32.45
2022-09-10T18:03:29.500Z,32.55
2022-09-10T18:06:12.364Z,32.82
2022-09-10T18:08:46.704Z,32.98
2022-09-10T18:11:33.351Z,33.09
2022-09-10T18:14:07.317Z,33.04
2022-09-10T18:16:41.166Z,33.47
2022-09-10T18:19:17.906Z,33.32
2022-09-10T18:21:52.073Z,33.29
2022-09-10T18:24:25.904Z,33.13
2022-09-10T18:27:01.111Z,32.98
2022-09-10T18:29:35.140Z,32.96
2022-09-10T18:32:09.336Z,33.08
2022-09-10T18:34:43.121Z,33.07
2022-09-10T18:37:16.351Z,33.05
2022-09-10T18:39:50.407Z,33.03
2022-09-10T18:42:24.025Z,33.08
2022-09-10T18:44:57.468Z,33.15
2022-09-10T18:47:44.169Z,33.27
2022-09-10T18:50:06.892Z,33.39
2022-09-10T18:52:40.317Z,33.30
2022-09-10T18:55:13.975Z,33.49
2022-09-10T18:57:47.780Z,33.94
2022-09-10T19:00:25.796Z,34.13
2022-09-10T19:02:59.062Z,33.87
2022-09-10T19:05:33.831Z,34.02
2022-09-10T19:08:07.279Z,33.97
2022-09-10T19:10:41.937Z,34.21
2022-09-10T19:13:16.162Z,34.26
2022-09-10T19:15:59.577Z,34.32
2022-09-10T19:18:34.799Z,34.25
2022-09-10T19:21:08.544Z,34.27
2022-09-10T19:23:41.982Z,34.27
2022-09-10T19:26:15.746Z,34.43
2022-09-10T19:28:49.427Z,34.53
2022-09-10T19:31:23.122Z,34.73
2022-09-10T19:33:58.750Z,34.71
2022-09-10T19:36:35.426Z,34.88
2022-09-10T19:39:11.075Z,35.07
2022-09-10T19:41:46.725Z,35.24
2022-09-10T19:44:21.069Z,35.29
2022-09-10T19:46:55.435Z,35.40
2022-09-10T19:49:29.769Z,35.46
2022-09-10T19:52:04.503Z,35.61
2022-09-10T19:54:38.293Z,35.62
2022-09-10T19:57:11.685Z,35.76
2022-09-10T19:59:44.945Z,35.81
2022-09-10T20:02:19.084Z,35.82
2022-09-10T20:04:55.055Z,35.76
2022-09-10T20:07:30.259Z,35.92
2022-09-10T20:10:04.961Z,36.07
2022-09-10T20:12:38.465Z,36.06
2022-09-10T20:15:12.595Z,36.47
2022-09-10T20:17:47.801Z,36.48
2022-09-10T20:20:21.385Z,36.44
2022-09-10T20:22:57.028Z,36.42
2022-09-10T20:25:32.038Z,36.45
2022-09-10T20:28:05.586Z,36.51
2022-09-10T20:30:39.834Z,36.61
2022-09-10T20:33:13.157Z,36.73
2022-09-10T20:35:47.949Z,36.70
2022-09-10T20:38:21.847Z,36.64
2022-09-10T20:40:55.097Z,36.72
2022-09-10T20:43:28.726Z,36.82
2022-09-10T20:46:03.228Z,36.92
2022-09-10T20:48:36.657Z,36.90
2022-09-10T20:51:10.438Z,36.91
2022-09-10T20:53:44.239Z,37.02
2022-09-10T20:56:19.607Z,37.09
2022-09-10T20:58:53.113Z,37.14
2022-09-10T21:01:28.269Z,37.25
2022-09-10T21:04:04.253Z,37.27
2022-09-10T21:06:38.050Z,37.31
2022-09-10T21:09:12.157Z,37.44
2022-09-10T21:11:45.349Z,37.49
2022-09-10T21:14:19.119Z,37.42
2022-09-10T21:16:53.313Z,37.47
2022-09-10T21:19:29.832Z,37.56
2022-09-10T21:22:03.714Z,37.59
2022-09-10T21:24:38.923Z,37.62
2022-09-10T21:27:12.564Z,37.64
2022-09-10T21:29:47.274Z,37.73
2022-09-10T21:32:20.737Z,37.90
2022-09-10T21:34:54.453Z,38.04
2022-09-10T21:37:27.832Z,38.17
2022-09-10T21:40:02.319Z,38.37
2022-09-10T21:42:35.569Z,38.40
2022-09-10T21:45:12.157Z,38.53
2022-09-10T21:47:45.413Z,38.66
2022-09-10T21:50:19.254Z,38.67
2022-09-10T21:52:52.713Z,38.64
2022-09-10T21:55:26.162Z,38.57
2022-09-10T21:57:59.746Z,38.48
2022-09-10T22:00:33.245Z,38.49
2022-09-10T22:03:06.761Z,38.41
2022-09-10T22:05:40.006Z,38.41
2022-09-10T22:08:14.258Z,38.55
2022-09-10T22:10:47.987Z,38.47
2022-09-10T22:13:22.328Z,38.52
2022-09-10T22:15:57.609Z,38.66
2022-09-10T22:18:33.653Z,38.73
2022-09-10T22:21:07.378Z,38.92
2022-09-10T22:23:42.798Z,38.86
2022-09-10T22:26:19.106Z,38.80
2022-09-10T22:28:55.612Z,38.79
2022-09-10T22:31:31.717Z,38.82
2022-09-10T22:34:07.174Z,38.96
2022-09-10T22:36:42.080Z,39.00
2022-09-10T22:39:17.593Z,39.06
2022-09-10T22:41:51.804Z,39.06
2022-09-10T22:44:26.366Z,39.14
2022-09-10T22:47:00.538Z,39.17
2022-09-10T22:49:34.210Z,39.20
2022-09-10T22:52:07.802Z,39.25
2022-09-10T22:54:41.501Z,39.13
2022-09-10T22:57:15.425Z,39.17
2022-09-10T22:59:50.423Z,39.16
2022-09-10T23:02:24.075Z,39.15
2022-09-10T23:04:57.639Z,39.15
2022-09-10T23:07:31.009Z,39.30
2022-09-10T23:10:04.797Z,39.35
2022-09-10T23:12:38.886Z,39.38
2022-09-10T23:15:12.987Z,39.52
2022-09-10T23:17:46.741Z,39.68
2022-09-10T23:20:20.217Z,39.78
2022-09-10T23:22:54.022Z,39.96
2022-09-10T23:25:27.806Z,40.04
2022-09-10T23:28:05.462Z,40.14
2022-09-10T23:30:36.849Z,40.45
2022-09-10T23:33:10.461Z,40.55
2022-09-10T23:35:51.480Z,40.67
2022-09-10T23:38:25.038Z,40.55
2022-09-10T23:40:59.479Z,40.63
2022-09-10T23:43:33.290Z,40.75
2022-09-10T23:46:07.758Z,41.36
2022-09-10T23:48:42.572Z,41.61
2022-09-10T23:51:17.531Z,41.72
2022-09-10T23:53:51.688Z,41.70
2022-09-10T23:56:27.039Z,41.86
2022-09-10T23:59:00.934Z,42.13
